This is the latest recevied weather packets stored in our database for station/object F4FSZ-11. If no packets are shown the sender has not sent any weather packets the latest 10 day(s).
| Time | Temp. | Humidity | Pressure | Rain* | Wind** | Luminosity | Snow |
|---|---|---|---|---|---|---|---|
| 1777547898 | 25° C | 34% | 1013.8 hPa | - | - | - | - |
| 1777546998 | 23.89° C | 30% | 1013.9 hPa | - | - | - | - |
| 1777546098 | 22.78° C | 32% | 1014 hPa | - | - | - | - |
| 1777545198 | 22.78° C | 33% | 1014.1 hPa | - | - | - | - |
| 1777544298 | 22.22° C | 33% | 1014.2 hPa | - | - | - | - |
| 1777543398 | 21.11° C | 34% | 1014.3 hPa | - | - | - | - |
| 1777542498 | 20° C | 36% | 1014.2 hPa | - | - | - | - |
| 1777541598 | 19.44° C | 36% | 1014.3 hPa | - | - | - | - |
| 1777540698 | 18.33° C | 38% | 1014.3 hPa | - | - | - | - |
| 1777539797 | 16.67° C | 44% | 1014.5 hPa | - | - | - | - |
| 1777538897 | 15.56° C | 45% | 1014.5 hPa | - | - | - | - |
| 1777537997 | 14.44° C | 45% | 1014.5 hPa | - | - | - | - |
| 1777537097 | 13.89° C | 48% | 1014.5 hPa | - | - | - | - |
| 1777536197 | 13.33° C | 48% | 1014.4 hPa | - | - | - | - |
| 1777535297 | 12.78° C | 50% | 1014.5 hPa | - | - | - | - |
| 1777534397 | 12.22° C | 50% | 1014.5 hPa | - | - | - | - |
| 1777532597 | 11.11° C | 52% | 1014.4 hPa | - | - | - | - |
| 1777531697 | 10.56° C | 52% | 1014.4 hPa | - | - | - | - |
| 1777530797 | 9.44° C | 56% | 1014.2 hPa | - | - | - | - |
| 1777529897 | 8.33° C | 62% | 1014.3 hPa | - | - | - | - |
| 1777528997 | 7.78° C | 62% | 1014.3 hPa | - | - | - | - |
| 1777528097 | 7.78° C | 61% | 1014.1 hPa | - | - | - | - |
| 1777527197 | 7.78° C | 56% | 1014.1 hPa | - | - | - | - |
| 1777526297 | 6.67° C | 61% | 1014.1 hPa | - | - | - | - |
| 1777525397 | 5.56° C | 65% | 1013.9 hPa | - | - | - | - |
* Rain since midnight (hover to see other rain measurements)
** Current wind speed in m/s (hover to see current wind gust speed)